sensor_id;sensor_type;location;lat;lon;timestamp;pressure;altitude;pressure_sealevel;temperature;humidity
42111;BME280;27766;52.174;5.456;2024-01-25T00:02:11;102638.22;;;7.87;100.00
42111;BME280;27766;52.174;5.456;2024-01-25T00:04:38;102633.25;;;7.90;100.00
42111;BME280;27766;52.174;5.456;2024-01-25T00:07:08;102640.09;;;7.90;100.00
42111;BME280;27766;52.174;5.456;2024-01-25T00:09:35;102639.59;;;7.81;100.00
42111;BME280;27766;52.174;5.456;2024-01-25T00:12:03;102642.03;;;7.79;100.00
42111;BME280;27766;52.174;5.456;2024-01-25T00:14:30;102643.03;;;7.81;100.00
42111;BME280;27766;52.174;5.456;2024-01-25T00:16:57;102656.13;;;7.84;100.00
42111;BME280;27766;52.174;5.456;2024-01-25T00:19:24;102647.13;;;7.78;100.00
42111;BME280;27766;52.174;5.456;2024-01-25T00:21:52;102650.41;;;7.75;100.00
42111;BME280;27766;52.174;5.456;2024-01-25T00:24:19;102637.88;;;7.66;100.00
42111;BME280;27766;52.174;5.456;2024-01-25T00:26:46;102635.03;;;7.62;100.00
42111;BME280;27766;52.174;5.456;2024-01-25T00:29:14;102647.28;;;7.66;100.00
42111;BME280;27766;52.174;5.456;2024-01-25T00:31:42;102648.81;;;7.62;100.00
42111;BME280;27766;52.174;5.456;2024-01-25T00:34:09;102648.88;;;7.64;100.00
42111;BME280;27766;52.174;5.456;2024-01-25T00:36:37;102647.44;;;7.54;100.00
42111;BME280;27766;52.174;5.456;2024-01-25T00:39:04;102646.75;;;7.56;100.00
42111;BME280;27766;52.174;5.456;2024-01-25T00:41:32;102653.59;;;7.56;100.00
42111;BME280;27766;52.174;5.456;2024-01-25T00:44:00;102652.53;;;7.52;100.00
42111;BME280;27766;52.174;5.456;2024-01-25T00:46:27;102645.13;;;7.43;100.00
42111;BME280;27766;52.174;5.456;2024-01-25T00:48:55;102669.56;;;7.50;100.00
42111;BME280;27766;52.174;5.456;2024-01-25T00:51:23;102665.94;;;7.47;100.00
42111;BME280;27766;52.174;5.456;2024-01-25T00:53:50;102672.66;;;7.44;100.00
42111;BME280;27766;52.174;5.456;2024-01-25T00:56:18;102668.13;;;7.40;100.00
42111;BME280;27766;52.174;5.456;2024-01-25T00:58:45;102668.31;;;7.43;100.00
42111;BME280;27766;52.174;5.456;2024-01-25T01:01:13;102681.03;;;7.40;100.00
42111;BME280;27766;52.174;5.456;2024-01-25T01:03:41;102671.41;;;7.38;100.00
42111;BME280;27766;52.174;5.456;2024-01-25T01:06:08;102670.84;;;7.28;100.00
42111;BME280;27766;52.174;5.456;2024-01-25T01:08:36;102674.16;;;7.26;100.00
42111;BME280;27766;52.174;5.456;2024-01-25T01:11:04;102678.50;;;7.27;100.00
42111;BME280;27766;52.174;5.456;2024-01-25T01:13:31;102676.16;;;7.17;100.00
42111;BME280;27766;52.174;5.456;2024-01-25T01:15:58;102687.16;;;7.14;100.00
42111;BME280;27766;52.174;5.456;2024-01-25T01:18:25;102676.84;;;7.14;100.00
42111;BME280;27766;52.174;5.456;2024-01-25T01:20:53;102677.66;;;7.13;100.00
42111;BME280;27766;52.174;5.456;2024-01-25T01:23:20;102684.22;;;7.08;100.00
42111;BME280;27766;52.174;5.456;2024-01-25T01:25:47;102679.56;;;7.02;100.00
42111;BME280;27766;52.174;5.456;2024-01-25T01:28:14;102689.94;;;7.04;100.00
42111;BME280;27766;52.174;5.456;2024-01-25T01:30:42;102686.28;;;7.00;100.00
42111;BME280;27766;52.174;5.456;2024-01-25T01:33:09;102683.44;;;6.95;100.00
42111;BME280;27766;52.174;5.456;2024-01-25T01:35:37;102686.50;;;6.90;100.00
42111;BME280;27766;52.174;5.456;2024-01-25T01:38:04;102686.41;;;6.88;100.00
42111;BME280;27766;52.174;5.456;2024-01-25T01:40:31;102686.41;;;6.88;100.00
42111;BME280;27766;52.174;5.456;2024-01-25T01:43:01;102685.16;;;6.81;100.00
42111;BME280;27766;52.174;5.456;2024-01-25T01:45:29;102691.19;;;6.82;100.00
42111;BME280;27766;52.174;5.456;2024-01-25T01:47:56;102691.09;;;6.80;100.00
42111;BME280;27766;52.174;5.456;2024-01-25T01:50:25;102687.53;;;6.78;100.00
42111;BME280;27766;52.174;5.456;2024-01-25T01:52:53;102696.53;;;6.72;100.00
42111;BME280;27766;52.174;5.456;2024-01-25T01:55:21;102691.38;;;6.72;100.00
42111;BME280;27766;52.174;5.456;2024-01-25T01:57:48;102696.44;;;6.70;100.00
42111;BME280;27766;52.174;5.456;2024-01-25T02:00:16;102694.38;;;6.64;100.00
42111;BME280;27766;52.174;5.456;2024-01-25T02:02:44;102696.56;;;6.58;100.00
42111;BME280;27766;52.174;5.456;2024-01-25T02:05:12;102697.34;;;6.57;100.00
42111;BME280;27766;52.174;5.456;2024-01-25T02:07:40;102696.47;;;6.57;100.00
42111;BME280;27766;52.174;5.456;2024-01-25T02:10:08;102706.75;;;6.57;100.00
42111;BME280;27766;52.174;5.456;2024-01-25T02:12:36;102711.69;;;6.54;100.00
42111;BME280;27766;52.174;5.456;2024-01-25T02:15:04;102720.97;;;6.52;100.00
42111;BME280;27766;52.174;5.456;2024-01-25T02:17:31;102730.41;;;6.51;100.00
42111;BME280;27766;52.174;5.456;2024-01-25T02:19:58;102731.09;;;6.48;100.00
42111;BME280;27766;52.174;5.456;2024-01-25T02:22:26;102735.84;;;6.42;100.00
42111;BME280;27766;52.174;5.456;2024-01-25T02:24:53;102734.84;;;6.40;100.00
42111;BME280;27766;52.174;5.456;2024-01-25T02:27:21;102742.56;;;6.40;100.00
42111;BME280;27766;52.174;5.456;2024-01-25T02:29:48;102743.03;;;6.34;100.00
42111;BME280;27766;52.174;5.456;2024-01-25T02:32:15;102737.81;;;6.33;100.00
42111;BME280;27766;52.174;5.456;2024-01-25T02:34:42;102747.69;;;6.27;100.00
42111;BME280;27766;52.174;5.456;2024-01-25T02:37:10;102743.25;;;6.24;100.00
42111;BME280;27766;52.174;5.456;2024-01-25T02:39:39;102752.84;;;6.27;100.00
42111;BME280;27766;52.174;5.456;2024-01-25T02:42:06;102757.75;;;6.24;100.00
42111;BME280;27766;52.174;5.456;2024-01-25T02:44:33;102751.44;;;6.18;100.00
42111;BME280;27766;52.174;5.456;2024-01-25T02:47:00;102760.81;;;6.18;100.00
42111;BME280;27766;52.174;5.456;2024-01-25T02:49:28;102761.31;;;6.12;100.00
42111;BME280;27766;52.174;5.456;2024-01-25T02:51:55;102764.66;;;6.11;100.00
42111;BME280;27766;52.174;5.456;2024-01-25T02:54:22;102763.66;;;6.09;100.00
42111;BME280;27766;52.174;5.456;2024-01-25T02:56:49;102766.16;;;6.08;100.00
42111;BME280;27766;52.174;5.456;2024-01-25T02:59:17;102762.34;;;6.02;100.00
42111;BME280;27766;52.174;5.456;2024-01-25T03:01:44;102769.50;;;6.07;100.00
42111;BME280;27766;52.174;5.456;2024-01-25T03:04:12;102762.47;;;6.04;100.00
42111;BME280;27766;52.174;5.456;2024-01-25T03:06:39;102748.06;;;5.94;100.00
42111;BME280;27766;52.174;5.456;2024-01-25T03:09:07;102756.59;;;5.93;100.00
42111;BME280;27766;52.174;5.456;2024-01-25T03:11:34;102745.28;;;5.91;100.00
42111;BME280;27766;52.174;5.456;2024-01-25T03:14:02;102749.53;;;5.91;100.00
42111;BME280;27766;52.174;5.456;2024-01-25T03:16:29;102757.25;;;5.91;100.00
42111;BME280;27766;52.174;5.456;2024-01-25T03:18:56;102761.28;;;5.87;100.00
42111;BME280;27766;52.174;5.456;2024-01-25T03:21:23;102755.03;;;5.83;100.00
42111;BME280;27766;52.174;5.456;2024-01-25T03:23:51;102755.72;;;5.81;100.00
42111;BME280;27766;52.174;5.456;2024-01-25T03:26:18;102769.16;;;5.77;100.00
42111;BME280;27766;52.174;5.456;2024-01-25T03:28:45;102765.38;;;5.71;100.00
42111;BME280;27766;52.174;5.456;2024-01-25T03:31:12;102753.13;;;5.67;100.00
42111;BME280;27766;52.174;5.456;2024-01-25T03:33:40;102749.44;;;5.64;100.00
42111;BME280;27766;52.174;5.456;2024-01-25T03:36:07;102760.28;;;5.60;100.00
42111;BME280;27766;52.174;5.456;2024-01-25T03:38:34;102755.72;;;5.55;100.00
42111;BME280;27766;52.174;5.456;2024-01-25T03:41:02;102747.13;;;5.55;100.00
42111;BME280;27766;52.174;5.456;2024-01-25T03:43:29;102747.78;;;5.52;100.00
42111;BME280;27766;52.174;5.456;2024-01-25T03:46:08;102746.50;;;5.46;100.00
42111;BME280;27766;52.174;5.456;2024-01-25T03:48:36;102730.44;;;5.36;100.00
42111;BME280;27766;52.174;5.456;2024-01-25T03:51:03;102743.59;;;5.41;100.00
42111;BME280;27766;52.174;5.456;2024-01-25T03:53:30;102746.19;;;5.41;100.00
42111;BME280;27766;52.174;5.456;2024-01-25T03:55:58;102754.75;;;5.42;100.00
42111;BME280;27766;52.174;5.456;2024-01-25T03:58:25;102751.22;;;5.39;100.00
42111;BME280;27766;52.174;5.456;2024-01-25T04:00:52;102760.56;;;5.39;100.00
42111;BME280;27766;52.174;5.456;2024-01-25T04:03:20;102753.47;;;5.35;100.00
42111;BME280;27766;52.174;5.456;2024-01-25T04:05:48;102755.91;;;5.33;100.00
42111;BME280;27766;52.174;5.456;2024-01-25T04:08:15;102747.00;;;5.28;100.00
42111;BME280;27766;52.174;5.456;2024-01-25T04:10:42;102737.84;;;5.20;100.00
42111;BME280;27766;52.174;5.456;2024-01-25T04:13:09;102730.72;;;5.16;100.00
42111;BME280;27766;52.174;5.456;2024-01-25T04:15:36;102745.91;;;5.13;100.00
42111;BME280;27766;52.174;5.456;2024-01-25T04:18:04;102737.00;;;5.07;100.00
42111;BME280;27766;52.174;5.456;2024-01-25T04:20:31;102760.63;;;5.15;100.00
42111;BME280;27766;52.174;5.456;2024-01-25T04:23:01;102748.56;;;5.14;100.00
42111;BME280;27766;52.174;5.456;2024-01-25T04:25:29;102756.28;;;5.14;100.00
42111;BME280;27766;52.174;5.456;2024-01-25T04:28:00;102747.69;;;5.14;100.00
42111;BME280;27766;52.174;5.456;2024-01-25T04:30:27;102751.72;;;5.10;100.00
42111;BME280;27766;52.174;5.456;2024-01-25T04:32:55;102752.06;;;5.15;100.00
42111;BME280;27766;52.174;5.456;2024-01-25T04:35:22;102747.38;;;5.09;100.00
42111;BME280;27766;52.174;5.456;2024-01-25T04:37:49;102755.16;;;5.11;100.00
42111;BME280;27766;52.174;5.456;2024-01-25T04:40:17;102738.03;;;4.98;100.00
42111;BME280;27766;52.174;5.456;2024-01-25T04:42:44;102752.16;;;5.04;100.00
42111;BME280;27766;52.174;5.456;2024-01-25T04:45:11;102743.94;;;4.97;100.00
42111;BME280;27766;52.174;5.456;2024-01-25T04:47:38;102756.88;;;4.98;100.00
42111;BME280;27766;52.174;5.456;2024-01-25T04:50:07;102756.63;;;4.95;100.00
42111;BME280;27766;52.174;5.456;2024-01-25T04:52:34;102758.44;;;4.96;100.00
42111;BME280;27766;52.174;5.456;2024-01-25T04:55:01;102753.97;;;4.94;100.00
42111;BME280;27766;52.174;5.456;2024-01-25T04:57:29;102761.34;;;4.89;100.00
42111;BME280;27766;52.174;5.456;2024-01-25T04:59:56;102763.56;;;4.84;100.00
42111;BME280;27766;52.174;5.456;2024-01-25T05:02:23;102765.16;;;4.82;100.00
42111;BME280;27766;52.174;5.456;2024-01-25T05:04:51;102766.38;;;4.75;100.00
42111;BME280;27766;52.174;5.456;2024-01-25T05:07:18;102767.59;;;4.81;100.00
42111;BME280;27766;52.174;5.456;2024-01-25T05:09:55;102771.25;;;4.72;100.00
42111;BME280;27766;52.174;5.456;2024-01-25T05:12:22;102758.00;;;4.66;100.00
42111;BME280;27766;52.174;5.456;2024-01-25T05:14:50;102770.03;;;4.67;100.00
42111;BME280;27766;52.174;5.456;2024-01-25T05:17:17;102766.94;;;4.59;100.00
42111;BME280;27766;52.174;5.456;2024-01-25T05:19:44;102772.84;;;4.58;100.00
42111;BME280;27766;52.174;5.456;2024-01-25T05:22:12;102777.84;;;4.57;100.00
42111;BME280;27766;52.174;5.456;2024-01-25T05:24:39;102765.34;;;4.50;100.00
42111;BME280;27766;52.174;5.456;2024-01-25T05:27:06;102767.13;;;4.51;100.00
42111;BME280;27766;52.174;5.456;2024-01-25T05:29:33;102777.38;;;4.51;100.00
42111;BME280;27766;52.174;5.456;2024-01-25T05:32:01;102778.63;;;4.44;100.00
42111;BME280;27766;52.174;5.456;2024-01-25T05:34:28;102770.59;;;4.39;100.00
42111;BME280;27766;52.174;5.456;2024-01-25T05:36:56;102784.06;;;4.49;100.00
42111;BME280;27766;52.174;5.456;2024-01-25T05:39:23;102789.19;;;4.49;100.00
42111;BME280;27766;52.174;5.456;2024-01-25T05:41:50;102778.84;;;4.47;100.00
42111;BME280;27766;52.174;5.456;2024-01-25T05:44:17;102795.44;;;4.52;100.00
42111;BME280;27766;52.174;5.456;2024-01-25T05:46:45;102793.69;;;4.51;100.00
42111;BME280;27766;52.174;5.456;2024-01-25T05:49:12;102794.31;;;4.49;100.00
42111;BME280;27766;52.174;5.456;2024-01-25T05:51:39;102797.69;;;4.48;100.00
42111;BME280;27766;52.174;5.456;2024-01-25T05:54:06;102791.44;;;4.44;100.00
42111;BME280;27766;52.174;5.456;2024-01-25T05:56:33;102785.84;;;4.38;100.00
42111;BME280;27766;52.174;5.456;2024-01-25T05:59:01;102781.50;;;4.37;100.00
42111;BME280;27766;52.174;5.456;2024-01-25T06:01:28;102792.66;;;4.37;100.00
42111;BME280;27766;52.174;5.456;2024-01-25T06:03:55;102798.56;;;4.36;100.00
42111;BME280;27766;52.174;5.456;2024-01-25T06:06:23;102808.03;;;4.37;100.00
42111;BME280;27766;52.174;5.456;2024-01-25T06:08:50;102799.91;;;4.31;100.00
42111;BME280;27766;52.174;5.456;2024-01-25T06:11:28;102797.09;;;4.28;100.00
42111;BME280;27766;52.174;5.456;2024-01-25T06:13:55;102800.41;;;4.27;100.00
42111;BME280;27766;52.174;5.456;2024-01-25T06:16:23;102807.34;;;4.28;100.00
42111;BME280;27766;52.174;5.456;2024-01-25T06:18:50;102801.88;;;4.23;100.00
42111;BME280;27766;52.174;5.456;2024-01-25T06:21:18;102809.91;;;4.28;100.00
42111;BME280;27766;52.174;5.456;2024-01-25T06:23:45;102811.69;;;4.29;100.00
42111;BME280;27766;52.174;5.456;2024-01-25T06:26:12;102803.75;;;4.26;100.00
42111;BME280;27766;52.174;5.456;2024-01-25T06:28:40;102803.66;;;4.24;100.00
42111;BME280;27766;52.174;5.456;2024-01-25T06:31:08;102798.94;;;4.19;100.00
42111;BME280;27766;52.174;5.456;2024-01-25T06:33:35;102809.44;;;4.22;100.00
42111;BME280;27766;52.174;5.456;2024-01-25T06:36:02;102818.81;;;4.21;100.00
42111;BME280;27766;52.174;5.456;2024-01-25T06:38:29;102818.56;;;4.18;100.00
42111;BME280;27766;52.174;5.456;2024-01-25T06:40:57;102811.25;;;4.23;100.00
42111;BME280;27766;52.174;5.456;2024-01-25T06:43:24;102810.13;;;4.19;100.00
42111;BME280;27766;52.174;5.456;2024-01-25T06:45:52;102814.22;;;4.17;100.00
42111;BME280;27766;52.174;5.456;2024-01-25T06:48:19;102811.56;;;4.16;100.00
42111;BME280;27766;52.174;5.456;2024-01-25T06:50:46;102824.38;;;4.16;100.00
42111;BME280;27766;52.174;5.456;2024-01-25T06:53:13;102823.34;;;4.14;100.00
42111;BME280;27766;52.174;5.456;2024-01-25T06:55:40;102829.50;;;4.16;100.00
42111;BME280;27766;52.174;5.456;2024-01-25T06:58:08;102829.50;;;4.16;100.00
42111;BME280;27766;52.174;5.456;2024-01-25T07:00:35;102818.88;;;4.11;100.00
42111;BME280;27766;52.174;5.456;2024-01-25T07:03:06;102814.28;;;4.07;100.00
42111;BME280;27766;52.174;5.456;2024-01-25T07:05:33;102810.59;;;4.03;100.00
42111;BME280;27766;52.174;5.456;2024-01-25T07:08:03;102818.44;;;4.05;100.00
42111;BME280;27766;52.174;5.456;2024-01-25T07:10:30;102804.00;;;3.95;100.00
42111;BME280;27766;52.174;5.456;2024-01-25T07:12:58;102820.06;;;4.04;100.00
42111;BME280;27766;52.174;5.456;2024-01-25T07:15:26;102816.09;;;4.08;100.00
42111;BME280;27766;52.174;5.456;2024-01-25T07:17:53;102819.78;;;4.11;100.00
42111;BME280;27766;52.174;5.456;2024-01-25T07:20:21;102819.91;;;4.13;100.00
42111;BME280;27766;52.174;5.456;2024-01-25T07:22:50;102821.19;;;4.08;100.00
42111;BME280;27766;52.174;5.456;2024-01-25T07:25:17;102817.00;;;4.08;100.00
42111;BME280;27766;52.174;5.456;2024-01-25T07:27:45;102811.63;;;4.05;100.00
42111;BME280;27766;52.174;5.456;2024-01-25T07:30:13;102817.66;;;4.06;100.00
42111;BME280;27766;52.174;5.456;2024-01-25T07:32:41;102832.38;;;4.08;100.00
42111;BME280;27766;52.174;5.456;2024-01-25T07:35:09;102829.25;;;4.12;100.00
42111;BME280;27766;52.174;5.456;2024-01-25T07:37:37;102832.41;;;4.20;100.00
42111;BME280;27766;52.174;5.456;2024-01-25T07:40:04;102822.38;;;4.23;100.00
42111;BME280;27766;52.174;5.456;2024-01-25T07:42:32;102818.50;;;4.28;100.00
42111;BME280;27766;52.174;5.456;2024-01-25T07:44:59;102809.91;;;4.28;100.00
42111;BME280;27766;52.174;5.456;2024-01-25T07:47:26;102808.00;;;4.25;100.00
42111;BME280;27766;52.174;5.456;2024-01-25T07:49:53;102807.19;;;4.15;100.00
42111;BME280;27766;52.174;5.456;2024-01-25T07:52:21;102805.09;;;4.21;100.00
42111;BME280;27766;52.174;5.456;2024-01-25T07:54:51;102809.56;;;4.23;100.00
42111;BME280;27766;52.174;5.456;2024-01-25T07:57:20;102814.56;;;4.22;100.00
42111;BME280;27766;52.174;5.456;2024-01-25T07:59:47;102818.94;;;4.23;100.00
42111;BME280;27766;52.174;5.456;2024-01-25T08:02:14;102820.72;;;4.24;100.00
42111;BME280;27766;52.174;5.456;2024-01-25T08:04:47;102810.69;;;4.27;100.00
42111;BME280;27766;52.174;5.456;2024-01-25T08:07:15;102814.72;;;4.35;100.00
42111;BME280;27766;52.174;5.456;2024-01-25T08:09:43;102796.31;;;4.29;100.00
42111;BME280;27766;52.174;5.456;2024-01-25T08:12:10;102817.53;;;4.38;100.00
42111;BME280;27766;52.174;5.456;2024-01-25T08:14:38;102823.66;;;4.40;100.00
42111;BME280;27766;52.174;5.456;2024-01-25T08:17:05;102838.25;;;4.41;100.00
42111;BME280;27766;52.174;5.456;2024-01-25T08:19:33;102845.41;;;4.46;100.00
42111;BME280;27766;52.174;5.456;2024-01-25T08:22:06;102841.81;;;4.43;100.00
42111;BME280;27766;52.174;5.456;2024-01-25T08:24:33;102837.16;;;4.50;100.00
42111;BME280;27766;52.174;5.456;2024-01-25T08:27:00;102832.25;;;4.53;100.00
42111;BME280;27766;52.174;5.456;2024-01-25T08:29:29;102838.41;;;4.55;100.00
42111;BME280;27766;52.174;5.456;2024-01-25T08:31:56;102831.84;;;4.58;100.00
42111;BME280;27766;52.174;5.456;2024-01-25T08:34:24;102830.25;;;4.60;100.00
42111;BME280;27766;52.174;5.456;2024-01-25T08:36:52;102826.38;;;4.66;100.00
42111;BME280;27766;52.174;5.456;2024-01-25T08:39:20;102813.31;;;4.63;100.00
42111;BME280;27766;52.174;5.456;2024-01-25T08:41:47;102824.25;;;4.72;100.00
42111;BME280;27766;52.174;5.456;2024-01-25T08:44:16;102837.63;;;4.80;100.00
42111;BME280;27766;52.174;5.456;2024-01-25T08:46:43;102840.44;;;4.83;100.00
42111;BME280;27766;52.174;5.456;2024-01-25T08:49:11;102830.94;;;4.82;100.00
42111;BME280;27766;52.174;5.456;2024-01-25T08:51:39;102843.56;;;4.90;100.00
42111;BME280;27766;52.174;5.456;2024-01-25T08:54:07;102850.94;;;4.98;100.00
42111;BME280;27766;52.174;5.456;2024-01-25T08:56:35;102853.72;;;5.01;100.00
42111;BME280;27766;52.174;5.456;2024-01-25T08:59:03;102860.75;;;5.03;100.00
42111;BME280;27766;52.174;5.456;2024-01-25T09:01:30;102858.41;;;5.06;100.00
42111;BME280;27766;52.174;5.456;2024-01-25T09:03:58;102852.94;;;5.14;100.00
42111;BME280;27766;52.174;5.456;2024-01-25T09:06:29;102830.06;;;5.29;100.00
42111;BME280;27766;52.174;5.456;2024-01-25T09:08:58;102845.13;;;5.36;100.00
42111;BME280;27766;52.174;5.456;2024-01-25T09:11:25;102842.84;;;5.41;100.00
42111;BME280;27766;52.174;5.456;2024-01-25T09:13:52;102829.81;;;5.49;100.00
42111;BME280;27766;52.174;5.456;2024-01-25T09:16:19;102848.22;;;5.55;100.00
42111;BME280;27766;52.174;5.456;2024-01-25T09:18:47;102843.06;;;5.55;100.00
42111;BME280;27766;52.174;5.456;2024-01-25T09:21:14;102850.88;;;5.57;100.00
42111;BME280;27766;52.174;5.456;2024-01-25T09:23:41;102858.81;;;5.60;100.00
42111;BME280;27766;52.174;5.456;2024-01-25T09:26:09;102861.56;;;5.63;100.00
42111;BME280;27766;52.174;5.456;2024-01-25T09:28:36;102855.78;;;5.66;100.00
42111;BME280;27766;52.174;5.456;2024-01-25T09:31:03;102857.69;;;5.68;100.00
42111;BME280;27766;52.174;5.456;2024-01-25T09:33:31;102852.19;;;5.76;100.00
42111;BME280;27766;52.174;5.456;2024-01-25T09:36:02;102856.28;;;5.85;100.00
42111;BME280;27766;52.174;5.456;2024-01-25T09:38:29;102847.00;;;5.88;100.00
42111;BME280;27766;52.174;5.456;2024-01-25T09:40:56;102836.91;;;6.02;100.00
42111;BME280;27766;52.174;5.456;2024-01-25T09:43:24;102836.34;;;6.07;100.00
42111;BME280;27766;52.174;5.456;2024-01-25T09:45:55;102830.75;;;6.12;100.00
42111;BME280;27766;52.174;5.456;2024-01-25T09:48:22;102833.34;;;6.26;100.00
42111;BME280;27766;52.174;5.456;2024-01-25T09:50:51;102840.69;;;6.33;100.00
42111;BME280;27766;52.174;5.456;2024-01-25T09:53:22;102842.00;;;6.40;100.00
42111;BME280;27766;52.174;5.456;2024-01-25T09:56:00;102838.75;;;6.42;100.00
42111;BME280;27766;52.174;5.456;2024-01-25T09:58:40;102844.75;;;6.43;100.00
42111;BME280;27766;52.174;5.456;2024-01-25T10:01:10;102849.03;;;6.42;100.00
42111;BME280;27766;52.174;5.456;2024-01-25T10:03:46;102827.94;;;6.48;100.00
42111;BME280;27766;52.174;5.456;2024-01-25T10:06:15;102827.38;;;6.52;100.00
42111;BME280;27766;52.174;5.456;2024-01-25T10:08:44;102824.19;;;6.56;100.00
42111;BME280;27766;52.174;5.456;2024-01-25T10:11:12;102818.78;;;6.65;100.00
42111;BME280;27766;52.174;5.456;2024-01-25T10:13:47;102820.16;;;6.60;100.00
42111;BME280;27766;52.174;5.456;2024-01-25T10:16:19;102825.59;;;6.64;100.00
42111;BME280;27766;52.174;5.456;2024-01-25T10:18:47;102838.00;;;6.70;100.00
42111;BME280;27766;52.174;5.456;2024-01-25T10:21:16;102837.38;;;6.74;100.00
42111;BME280;27766;52.174;5.456;2024-01-25T10:23:48;102824.34;;;6.85;100.00
42111;BME280;27766;52.174;5.456;2024-01-25T10:26:17;102832.44;;;6.91;100.00
42111;BME280;27766;52.174;5.456;2024-01-25T10:28:53;102843.25;;;6.99;100.00
42111;BME280;27766;52.174;5.456;2024-01-25T10:31:28;102841.94;;;7.05;100.00
42111;BME280;27766;52.174;5.456;2024-01-25T10:33:57;102832.56;;;7.06;100.00
42111;BME280;27766;52.174;5.456;2024-01-25T10:36:26;102821.47;;;7.07;100.00
42111;BME280;27766;52.174;5.456;2024-01-25T10:38:53;102811.34;;;7.10;100.00
42111;BME280;27766;52.174;5.456;2024-01-25T10:41:23;102811.06;;;7.19;100.00
42111;BME280;27766;52.174;5.456;2024-01-25T10:43:50;102809.38;;;7.19;100.00
42111;BME280;27766;52.174;5.456;2024-01-25T10:46:18;102804.03;;;7.16;100.00
42111;BME280;27766;52.174;5.456;2024-01-25T10:48:46;102812.25;;;7.24;100.00
42111;BME280;27766;52.174;5.456;2024-01-25T10:51:14;102813.31;;;7.27;100.00
42111;BME280;27766;52.174;5.456;2024-01-25T10:53:46;102817.69;;;7.28;100.00
42111;BME280;27766;52.174;5.456;2024-01-25T10:56:13;102817.28;;;7.36;100.00
42111;BME280;27766;52.174;5.456;2024-01-25T10:58:41;102807.56;;;7.45;100.00
42111;BME280;27766;52.174;5.456;2024-01-25T11:01:10;102791.38;;;7.48;100.00
42111;BME280;27766;52.174;5.456;2024-01-25T11:03:45;102803.97;;;7.43;100.00
42111;BME280;27766;52.174;5.456;2024-01-25T11:06:14;102807.06;;;7.51;100.00
42111;BME280;27766;52.174;5.456;2024-01-25T11:08:43;102794.16;;;7.51;100.00
42111;BME280;27766;52.174;5.456;2024-01-25T11:11:12;102776.81;;;7.48;100.00
42111;BME280;27766;52.174;5.456;2024-01-25T11:13:41;102767.56;;;7.52;100.00
42111;BME280;27766;52.174;5.456;2024-01-25T11:16:13;102766.47;;;7.62;100.00
42111;BME280;27766;52.174;5.456;2024-01-25T11:18:52;102769.41;;;7.68;100.00
42111;BME280;27766;52.174;5.456;2024-01-25T11:21:28;102771.38;;;7.72;100.00
42111;BME280;27766;52.174;5.456;2024-01-25T11:24:02;102753.19;;;7.84;100.00
42111;BME280;27766;52.174;5.456;2024-01-25T11:26:33;102753.53;;;7.90;100.00
42111;BME280;27766;52.174;5.456;2024-01-25T11:29:02;102761.97;;;7.87;100.00
42111;BME280;27766;52.174;5.456;2024-01-25T11:31:29;102767.25;;;7.89;100.00
42111;BME280;27766;52.174;5.456;2024-01-25T11:33:57;102768.19;;;7.76;100.00
42111;BME280;27766;52.174;5.456;2024-01-25T11:36:26;102757.25;;;7.80;100.00
42111;BME280;27766;52.174;5.456;2024-01-25T11:38:53;102754.25;;;7.72;100.00
42111;BME280;27766;52.174;5.456;2024-01-25T11:41:21;102737.44;;;7.79;100.00
42111;BME280;27766;52.174;5.456;2024-01-25T11:43:48;102735.31;;;7.87;100.00
42111;BME280;27766;52.174;5.456;2024-01-25T11:46:17;102731.84;;;7.86;100.00
42111;BME280;27766;52.174;5.456;2024-01-25T11:48:44;102736.94;;;8.00;100.00
42111;BME280;27766;52.174;5.456;2024-01-25T11:51:13;102741.56;;;8.05;100.00
42111;BME280;27766;52.174;5.456;2024-01-25T11:53:40;102739.06;;;7.92;100.00
42111;BME280;27766;52.174;5.456;2024-01-25T11:56:12;102718.78;;;7.98;100.00
42111;BME280;27766;52.174;5.456;2024-01-25T11:58:45;102703.25;;;8.12;100.00
42111;BME280;27766;52.174;5.456;2024-01-25T12:01:13;102704.56;;;8.20;100.00
42111;BME280;27766;52.174;5.456;2024-01-25T12:03:42;102707.59;;;8.28;100.00
42111;BME280;27766;52.174;5.456;2024-01-25T12:06:09;102719.78;;;8.30;100.00
42111;BME280;27766;52.174;5.456;2024-01-25T12:08:37;102723.25;;;8.31;100.00
42111;BME280;27766;52.174;5.456;2024-01-25T12:11:09;102728.94;;;8.25;100.00
42111;BME280;27766;52.174;5.456;2024-01-25T12:13:40;102716.75;;;8.22;100.00
42111;BME280;27766;52.174;5.456;2024-01-25T12:16:08;102713.28;;;8.22;100.00
42111;BME280;27766;52.174;5.456;2024-01-25T12:18:37;102706.19;;;8.18;100.00
42111;BME280;27766;52.174;5.456;2024-01-25T12:21:05;102702.09;;;8.21;100.00
42111;BME280;27766;52.174;5.456;2024-01-25T12:23:33;102685.00;;;8.23;100.00
42111;BME280;27766;52.174;5.456;2024-01-25T12:26:05;102692.97;;;8.28;100.00
42111;BME280;27766;52.174;5.456;2024-01-25T12:28:33;102696.53;;;8.30;100.00
42111;BME280;27766;52.174;5.456;2024-01-25T12:31:04;102694.88;;;8.31;100.00
42111;BME280;27766;52.174;5.456;2024-01-25T12:33:33;102693.34;;;8.34;100.00
42111;BME280;27766;52.174;5.456;2024-01-25T12:36:02;102683.31;;;8.39;100.00
42111;BME280;27766;52.174;5.456;2024-01-25T12:38:30;102682.47;;;8.40;100.00
42111;BME280;27766;52.174;5.456;2024-01-25T12:41:01;102684.50;;;8.46;100.00
42111;BME280;27766;52.174;5.456;2024-01-25T12:43:30;102679.56;;;8.49;100.00
42111;BME280;27766;52.174;5.456;2024-01-25T12:45:59;102675.38;;;8.51;100.00
42111;BME280;27766;52.174;5.456;2024-01-25T12:48:44;102673.84;;;8.54;100.00
42111;BME280;27766;52.174;5.456;2024-01-25T12:51:14;102673.22;;;8.59;100.00
42111;BME280;27766;52.174;5.456;2024-01-25T12:53:42;102655.56;;;8.66;100.00
42111;BME280;27766;52.174;5.456;2024-01-25T12:56:10;102651.97;;;8.79;100.00